sensor_id;sensor_type;location;lat;lon;timestamp;pressure;altitude;pressure_sealevel;temperature;humidity
21547;BME280;41275;51.912;4.388;2023-06-14T00:02:14;101492.72;;;27.04;29.29
21547;BME280;41275;51.912;4.388;2023-06-14T00:07:38;101494.16;;;27.02;29.66
21547;BME280;41275;51.912;4.388;2023-06-14T00:13:03;101503.75;;;26.90;29.96
21547;BME280;41275;51.912;4.388;2023-06-14T00:18:25;101503.41;;;26.83;30.06
21547;BME280;41275;51.912;4.388;2023-06-14T00:23:50;101495.63;;;26.73;30.63
21547;BME280;41275;51.912;4.388;2023-06-14T00:29:11;101501.03;;;26.73;30.79
21547;BME280;41275;51.912;4.388;2023-06-14T00:34:32;101503.91;;;26.59;31.16
21547;BME280;41275;51.912;4.388;2023-06-14T00:39:54;101501.50;;;26.49;31.57
21547;BME280;41275;51.912;4.388;2023-06-14T00:45:15;101498.72;;;26.40;31.85
21547;BME280;41275;51.912;4.388;2023-06-14T00:50:36;101499.38;;;26.37;32.06
21547;BME280;41275;51.912;4.388;2023-06-14T00:55:59;101495.03;;;26.28;32.38
21547;BME280;41275;51.912;4.388;2023-06-14T01:01:20;101498.53;;;26.28;32.50
21547;BME280;41275;51.912;4.388;2023-06-14T01:07:11;101498.72;;;26.32;32.44
21547;BME280;41275;51.912;4.388;2023-06-14T01:12:51;101496.63;;;26.29;32.80
21547;BME280;41275;51.912;4.388;2023-06-14T01:18:13;101492.94;;;26.25;32.80
21547;BME280;41275;51.912;4.388;2023-06-14T01:23:40;101496.63;;;26.20;33.00
21547;BME280;41275;51.912;4.388;2023-06-14T01:29:02;101495.19;;;26.14;32.78
21547;BME280;41275;51.912;4.388;2023-06-14T01:34:23;101501.69;;;26.13;32.69
21547;BME280;41275;51.912;4.388;2023-06-14T01:39:45;101496.75;;;26.06;32.49
21547;BME280;41275;51.912;4.388;2023-06-14T01:45:07;101497.06;;;26.05;32.13
21547;BME280;41275;51.912;4.388;2023-06-14T01:50:31;101498.16;;;26.04;31.73
21547;BME280;41275;51.912;4.388;2023-06-14T01:55:52;101493.25;;;26.06;31.53
21547;BME280;41275;51.912;4.388;2023-06-14T02:01:15;101488.28;;;25.99;31.17
21547;BME280;41275;51.912;4.388;2023-06-14T02:06:37;101489.06;;;26.00;31.17
21547;BME280;41275;51.912;4.388;2023-06-14T02:11:58;101497.81;;;25.97;30.91
21547;BME280;41275;51.912;4.388;2023-06-14T02:17:19;101492.72;;;25.95;30.67
21547;BME280;41275;51.912;4.388;2023-06-14T02:22:41;101490.00;;;25.86;30.70
21547;BME280;41275;51.912;4.388;2023-06-14T02:28:02;101501.94;;;25.85;30.75
21547;BME280;41275;51.912;4.388;2023-06-14T02:33:23;101496.78;;;25.75;31.27
21547;BME280;41275;51.912;4.388;2023-06-14T02:38:46;101504.38;;;25.64;31.99
21547;BME280;41275;51.912;4.388;2023-06-14T02:44:07;101495.97;;;25.43;32.84
21547;BME280;41275;51.912;4.388;2023-06-14T02:49:29;101507.84;;;25.34;33.45
21547;BME280;41275;51.912;4.388;2023-06-14T02:54:50;101507.00;;;25.25;33.78
21547;BME280;41275;51.912;4.388;2023-06-14T03:00:12;101507.25;;;25.14;34.05
21547;BME280;41275;51.912;4.388;2023-06-14T03:05:34;101506.97;;;25.02;34.82
21547;BME280;41275;51.912;4.388;2023-06-14T03:10:55;101514.53;;;24.91;35.14
21547;BME280;41275;51.912;4.388;2023-06-14T03:16:17;101513.66;;;24.82;35.63
21547;BME280;41275;51.912;4.388;2023-06-14T03:21:40;101525.81;;;24.71;35.42
21547;BME280;41275;51.912;4.388;2023-06-14T03:27:05;101527.06;;;24.65;36.10
21547;BME280;41275;51.912;4.388;2023-06-14T03:32:26;101538.28;;;24.58;35.97
21547;BME280;41275;51.912;4.388;2023-06-14T03:37:47;101547.00;;;24.55;35.98
21547;BME280;41275;51.912;4.388;2023-06-14T03:43:09;101545.22;;;24.51;35.74
21547;BME280;41275;51.912;4.388;2023-06-14T03:48:30;101541.31;;;24.43;35.81
21547;BME280;41275;51.912;4.388;2023-06-14T03:53:51;101546.53;;;24.39;35.79
21547;BME280;41275;51.912;4.388;2023-06-14T03:59:12;101552.13;;;24.43;35.65
21547;BME280;41275;51.912;4.388;2023-06-14T04:04:34;101555.19;;;24.36;35.42
21547;BME280;41275;51.912;4.388;2023-06-14T04:09:56;101558.44;;;24.38;35.50
21547;BME280;41275;51.912;4.388;2023-06-14T04:15:17;101566.25;;;24.40;35.28
21547;BME280;41275;51.912;4.388;2023-06-14T04:20:38;101567.88;;;24.41;35.27
21547;BME280;41275;51.912;4.388;2023-06-14T04:26:01;101574.50;;;24.48;35.20
21547;BME280;41275;51.912;4.388;2023-06-14T04:31:23;101572.06;;;24.47;35.06
21547;BME280;41275;51.912;4.388;2023-06-14T04:36:47;101569.38;;;24.47;35.04
21547;BME280;41275;51.912;4.388;2023-06-14T04:42:14;101577.09;;;24.54;34.32
21547;BME280;41275;51.912;4.388;2023-06-14T04:47:35;101566.94;;;24.59;34.51
21547;BME280;41275;51.912;4.388;2023-06-14T04:52:59;101573.06;;;24.65;34.55
21547;BME280;41275;51.912;4.388;2023-06-14T04:58:20;101576.16;;;24.72;34.39
21547;BME280;41275;51.912;4.388;2023-06-14T05:03:41;101572.53;;;24.77;34.13
21547;BME280;41275;51.912;4.388;2023-06-14T05:09:05;101570.91;;;24.89;33.93
21547;BME280;41275;51.912;4.388;2023-06-14T05:14:27;101584.09;;;25.05;33.50
21547;BME280;41275;51.912;4.388;2023-06-14T05:19:48;101588.88;;;25.21;33.07
21547;BME280;41275;51.912;4.388;2023-06-14T05:25:09;101594.25;;;25.35;33.03
21547;BME280;41275;51.912;4.388;2023-06-14T05:30:30;101596.09;;;25.49;32.41
21547;BME280;41275;51.912;4.388;2023-06-14T05:35:55;101591.72;;;25.61;32.03
21547;BME280;41275;51.912;4.388;2023-06-14T05:41:16;101595.31;;;25.70;31.96
21547;BME280;41275;51.912;4.388;2023-06-14T05:46:38;101597.28;;;25.79;31.64
21547;BME280;41275;51.912;4.388;2023-06-14T05:52:01;101602.63;;;25.92;31.32
21547;BME280;41275;51.912;4.388;2023-06-14T05:57:22;101601.25;;;26.04;30.80
21547;BME280;41275;51.912;4.388;2023-06-14T06:02:44;101600.81;;;26.19;30.29
21547;BME280;41275;51.912;4.388;2023-06-14T06:08:06;101598.63;;;26.30;30.25
21547;BME280;41275;51.912;4.388;2023-06-14T06:13:27;101601.00;;;26.62;29.88
21547;BME280;41275;51.912;4.388;2023-06-14T06:18:48;101607.28;;;26.80;29.50
21547;BME280;41275;51.912;4.388;2023-06-14T06:24:09;101613.03;;;26.96;28.88
21547;BME280;41275;51.912;4.388;2023-06-14T06:29:30;101618.16;;;27.06;28.63
21547;BME280;41275;51.912;4.388;2023-06-14T06:34:52;101620.25;;;27.18;28.33
21547;BME280;41275;51.912;4.388;2023-06-14T06:40:13;101623.31;;;27.25;28.10
21547;BME280;41275;51.912;4.388;2023-06-14T06:45:34;101632.25;;;27.34;28.22
21547;BME280;41275;51.912;4.388;2023-06-14T06:50:55;101629.66;;;27.47;27.87
21547;BME280;41275;51.912;4.388;2023-06-14T06:56:17;101638.78;;;27.51;27.98
21547;BME280;41275;51.912;4.388;2023-06-14T07:01:38;101641.19;;;27.61;27.73
21547;BME280;41275;51.912;4.388;2023-06-14T07:06:59;101649.16;;;27.66;28.00
21547;BME280;41275;51.912;4.388;2023-06-14T07:12:21;101645.47;;;27.88;27.84
21547;BME280;41275;51.912;4.388;2023-06-14T07:17:42;101656.03;;;27.89;27.91
21547;BME280;41275;51.912;4.388;2023-06-14T07:23:04;101665.72;;;28.17;27.99
21547;BME280;41275;51.912;4.388;2023-06-14T07:28:26;101666.97;;;28.28;27.42
21547;BME280;41275;51.912;4.388;2023-06-14T07:33:47;101669.34;;;28.29;27.45
21547;BME280;41275;51.912;4.388;2023-06-14T07:39:08;101673.78;;;28.51;27.41
21547;BME280;41275;51.912;4.388;2023-06-14T07:44:30;101672.59;;;28.70;27.26
21547;BME280;41275;51.912;4.388;2023-06-14T07:49:52;101661.56;;;28.87;27.10
21547;BME280;41275;51.912;4.388;2023-06-14T07:55:13;101659.03;;;29.11;27.13
21547;BME280;41275;51.912;4.388;2023-06-14T08:00:36;101675.63;;;29.40;26.69
21547;BME280;41275;51.912;4.388;2023-06-14T08:05:57;101684.16;;;29.38;26.54
21547;BME280;41275;51.912;4.388;2023-06-14T08:11:19;101677.03;;;29.46;26.30
21547;BME280;41275;51.912;4.388;2023-06-14T08:16:40;101684.41;;;29.66;26.08
21547;BME280;41275;51.912;4.388;2023-06-14T08:22:01;101679.34;;;29.77;26.22
21547;BME280;41275;51.912;4.388;2023-06-14T08:27:22;101687.66;;;29.80;25.79
21547;BME280;41275;51.912;4.388;2023-06-14T08:32:44;101688.63;;;30.09;24.95
21547;BME280;41275;51.912;4.388;2023-06-14T08:38:05;101696.88;;;30.21;24.99
21547;BME280;41275;51.912;4.388;2023-06-14T08:43:26;101680.50;;;30.33;25.29
21547;BME280;41275;51.912;4.388;2023-06-14T08:48:51;101687.47;;;30.55;25.13
21547;BME280;41275;51.912;4.388;2023-06-14T08:54:14;101680.19;;;30.84;24.68
21547;BME280;41275;51.912;4.388;2023-06-14T08:59:36;101690.56;;;30.91;24.64
21547;BME280;41275;51.912;4.388;2023-06-14T09:05:00;101681.34;;;31.23;23.98
21547;BME280;41275;51.912;4.388;2023-06-14T09:10:22;101683.06;;;31.40;23.05
21547;BME280;41275;51.912;4.388;2023-06-14T09:15:43;101683.50;;;31.42;23.34
21547;BME280;41275;51.912;4.388;2023-06-14T09:21:08;101695.91;;;31.52;22.63
21547;BME280;41275;51.912;4.388;2023-06-14T09:26:29;101707.69;;;31.68;22.75
21547;BME280;41275;51.912;4.388;2023-06-14T09:31:51;101702.69;;;31.58;22.60
21547;BME280;41275;51.912;4.388;2023-06-14T09:37:12;101711.16;;;31.81;22.64
21547;BME280;41275;51.912;4.388;2023-06-14T09:42:33;101716.94;;;31.92;22.13
21547;BME280;41275;51.912;4.388;2023-06-14T09:47:57;101702.81;;;32.06;21.92
21547;BME280;41275;51.912;4.388;2023-06-14T09:53:21;101713.06;;;32.09;21.72
21547;BME280;41275;51.912;4.388;2023-06-14T09:58:44;101711.31;;;32.32;21.43
21547;BME280;41275;51.912;4.388;2023-06-14T10:04:06;101709.47;;;32.36;21.17
21547;BME280;41275;51.912;4.388;2023-06-14T10:09:28;101714.44;;;32.46;21.73
21547;BME280;41275;51.912;4.388;2023-06-14T10:14:51;101713.69;;;32.65;20.57
21547;BME280;41275;51.912;4.388;2023-06-14T10:25:59;101708.66;;;32.83;20.34
21547;BME280;41275;51.912;4.388;2023-06-14T10:31:21;101706.69;;;32.99;20.31
21547;BME280;41275;51.912;4.388;2023-06-14T10:36:42;101708.81;;;33.26;19.78
21547;BME280;41275;51.912;4.388;2023-06-14T10:42:05;101707.16;;;33.60;19.47
21547;BME280;41275;51.912;4.388;2023-06-14T10:47:33;101706.66;;;33.74;19.00
21547;BME280;41275;51.912;4.388;2023-06-14T10:52:55;101705.50;;;33.75;18.25
21547;BME280;41275;51.912;4.388;2023-06-14T10:58:17;101713.50;;;33.83;17.95
21547;BME280;41275;51.912;4.388;2023-06-14T11:03:50;101702.28;;;33.92;17.82
21547;BME280;41275;51.912;4.388;2023-06-14T11:14:55;101704.50;;;34.06;17.84
21547;BME280;41275;51.912;4.388;2023-06-14T11:20:16;101700.97;;;34.05;17.47
21547;BME280;41275;51.912;4.388;2023-06-14T11:25:38;101689.28;;;34.35;17.09
21547;BME280;41275;51.912;4.388;2023-06-14T11:31:00;101700.47;;;34.45;16.83
21547;BME280;41275;51.912;4.388;2023-06-14T11:36:22;101688.09;;;34.55;16.41
21547;BME280;41275;51.912;4.388;2023-06-14T11:41:44;101688.16;;;34.59;16.11
21547;BME280;41275;51.912;4.388;2023-06-14T11:47:06;101699.22;;;34.66;16.57
21547;BME280;41275;51.912;4.388;2023-06-14T11:52:28;101693.38;;;34.67;17.13
21547;BME280;41275;51.912;4.388;2023-06-14T11:57:49;101688.09;;;34.85;17.05
21547;BME280;41275;51.912;4.388;2023-06-14T12:03:11;101686.81;;;35.02;17.02
21547;BME280;41275;51.912;4.388;2023-06-14T12:08:35;101690.47;;;35.13;17.10
21547;BME280;41275;51.912;4.388;2023-06-14T12:13:59;101684.13;;;35.09;16.90
21547;BME280;41275;51.912;4.388;2023-06-14T12:19:25;101682.56;;;35.08;16.78
21547;BME280;41275;51.912;4.388;2023-06-14T12:24:47;101676.72;;;35.47;16.06
21547;BME280;41275;51.912;4.388;2023-06-14T12:30:08;101691.97;;;36.60;15.29
21547;BME280;41275;51.912;4.388;2023-06-14T12:35:30;101682.94;;;37.65;15.17
21547;BME280;41275;51.912;4.388;2023-06-14T12:40:51;101676.56;;;39.00;13.95
21547;BME280;41275;51.912;4.388;2023-06-14T12:46:13;101675.22;;;39.96;13.06
21547;BME280;41275;51.912;4.388;2023-06-14T12:51:34;101671.53;;;40.13;12.46
21547;BME280;41275;51.912;4.388;2023-06-14T12:56:55;101678.88;;;40.31;11.67
21547;BME280;41275;51.912;4.388;2023-06-14T13:02:20;101686.59;;;40.91;11.87
21547;BME280;41275;51.912;4.388;2023-06-14T13:07:45;101687.66;;;41.01;11.24
21547;BME280;41275;51.912;4.388;2023-06-14T13:13:06;101686.34;;;41.43;11.43
21547;BME280;41275;51.912;4.388;2023-06-14T13:18:28;101693.00;;;42.24;11.19
21547;BME280;41275;51.912;4.388;2023-06-14T13:23:49;101692.28;;;42.63;10.99
21547;BME280;41275;51.912;4.388;2023-06-14T13:29:11;101679.47;;;43.25;10.30
21547;BME280;41275;51.912;4.388;2023-06-14T13:34:32;101684.72;;;43.40;10.61
21547;BME280;41275;51.912;4.388;2023-06-14T13:39:53;101681.13;;;43.03;10.92
21547;BME280;41275;51.912;4.388;2023-06-14T13:45:15;101669.66;;;43.37;10.92
21547;BME280;41275;51.912;4.388;2023-06-14T13:50:36;101676.56;;;43.81;10.44
21547;BME280;41275;51.912;4.388;2023-06-14T13:55:58;101671.34;;;44.00;10.23
21547;BME280;41275;51.912;4.388;2023-06-14T14:01:19;101671.13;;;44.23;9.96
21547;BME280;41275;51.912;4.388;2023-06-14T14:06:43;101652.84;;;44.22;10.02
21547;BME280;41275;51.912;4.388;2023-06-14T14:12:05;101662.72;;;44.10;9.82
21547;BME280;41275;51.912;4.388;2023-06-14T14:17:26;101651.75;;;44.03;10.02
21547;BME280;41275;51.912;4.388;2023-06-14T14:22:47;101661.50;;;44.41;9.92
21547;BME280;41275;51.912;4.388;2023-06-14T14:28:09;101673.09;;;44.68;9.98
21547;BME280;41275;51.912;4.388;2023-06-14T14:33:30;101659.19;;;44.94;9.44
21547;BME280;41275;51.912;4.388;2023-06-14T14:38:51;101660.69;;;45.24;9.72
21547;BME280;41275;51.912;4.388;2023-06-14T14:44:12;101652.72;;;45.61;9.52
21547;BME280;41275;51.912;4.388;2023-06-14T14:49:34;101652.81;;;45.70;9.51
21547;BME280;41275;51.912;4.388;2023-06-14T14:54:55;101651.91;;;45.73;9.22
21547;BME280;41275;51.912;4.388;2023-06-14T15:00:16;101660.56;;;45.53;9.44
21547;BME280;41275;51.912;4.388;2023-06-14T15:05:38;101659.34;;;45.41;9.69
21547;BME280;41275;51.912;4.388;2023-06-14T15:10:59;101656.50;;;45.67;9.09
21547;BME280;41275;51.912;4.388;2023-06-14T15:16:20;101653.81;;;45.76;8.90
21547;BME280;41275;51.912;4.388;2023-06-14T15:21:41;101647.25;;;45.57;9.29
21547;BME280;41275;51.912;4.388;2023-06-14T15:27:03;101654.38;;;45.84;8.82
21547;BME280;41275;51.912;4.388;2023-06-14T15:32:24;101642.06;;;46.16;9.00
21547;BME280;41275;51.912;4.388;2023-06-14T15:37:47;101639.22;;;46.50;8.15
21547;BME280;41275;51.912;4.388;2023-06-14T15:43:08;101644.56;;;46.36;8.76
21547;BME280;41275;51.912;4.388;2023-06-14T15:48:29;101659.03;;;46.87;8.38
21547;BME280;41275;51.912;4.388;2023-06-14T15:53:51;101650.34;;;46.19;8.09
21547;BME280;41275;51.912;4.388;2023-06-14T15:59:13;101659.97;;;46.18;8.17
21547;BME280;41275;51.912;4.388;2023-06-14T16:04:34;101656.34;;;46.18;8.42
21547;BME280;41275;51.912;4.388;2023-06-14T16:09:55;101647.66;;;45.81;8.25
21547;BME280;41275;51.912;4.388;2023-06-14T16:15:16;101636.41;;;45.34;8.69
21547;BME280;41275;51.912;4.388;2023-06-14T16:20:38;101640.47;;;45.45;8.67
21547;BME280;41275;51.912;4.388;2023-06-14T16:26:00;101636.44;;;45.46;8.38
21547;BME280;41275;51.912;4.388;2023-06-14T16:31:21;101641.78;;;45.41;8.48
21547;BME280;41275;51.912;4.388;2023-06-14T16:36:44;101646.81;;;45.33;8.44
21547;BME280;41275;51.912;4.388;2023-06-14T16:42:06;101641.25;;;45.46;9.03
21547;BME280;41275;51.912;4.388;2023-06-14T16:47:27;101639.75;;;45.54;8.67
21547;BME280;41275;51.912;4.388;2023-06-14T16:52:48;101643.75;;;45.66;8.82
21547;BME280;41275;51.912;4.388;2023-06-14T16:58:10;101649.91;;;46.43;8.50
21547;BME280;41275;51.912;4.388;2023-06-14T17:03:31;101655.94;;;46.41;8.93
21547;BME280;41275;51.912;4.388;2023-06-14T17:08:53;101656.75;;;46.42;8.86
21547;BME280;41275;51.912;4.388;2023-06-14T17:14:14;101666.31;;;46.54;8.82
21547;BME280;41275;51.912;4.388;2023-06-14T17:19:36;101660.41;;;45.95;9.11
21547;BME280;41275;51.912;4.388;2023-06-14T17:24:58;101670.94;;;45.01;9.57
21547;BME280;41275;51.912;4.388;2023-06-14T17:30:19;101660.44;;;45.31;9.39
21547;BME280;41275;51.912;4.388;2023-06-14T17:35:40;101675.94;;;44.52;9.92
21547;BME280;41275;51.912;4.388;2023-06-14T17:41:04;101675.03;;;44.42;9.92
21547;BME280;41275;51.912;4.388;2023-06-14T17:46:29;101677.88;;;44.97;9.80
21547;BME280;41275;51.912;4.388;2023-06-14T17:51:51;101676.16;;;44.87;9.46
21547;BME280;41275;51.912;4.388;2023-06-14T17:57:12;101688.28;;;44.67;9.98
21547;BME280;41275;51.912;4.388;2023-06-14T18:02:33;101699.25;;;44.00;10.03
21547;BME280;41275;51.912;4.388;2023-06-14T18:07:54;101702.56;;;43.78;10.01
21547;BME280;41275;51.912;4.388;2023-06-14T18:13:17;101698.78;;;43.69;9.88
21547;BME280;41275;51.912;4.388;2023-06-14T18:18:39;101700.88;;;43.65;10.12
21547;BME280;41275;51.912;4.388;2023-06-14T18:24:01;101707.22;;;43.65;10.53
21547;BME280;41275;51.912;4.388;2023-06-14T18:29:23;101698.19;;;43.25;10.14
21547;BME280;41275;51.912;4.388;2023-06-14T18:34:45;101705.94;;;42.34;10.59
21547;BME280;41275;51.912;4.388;2023-06-14T18:40:06;101707.69;;;41.74;11.44
21547;BME280;41275;51.912;4.388;2023-06-14T18:45:30;101713.91;;;40.14;12.19
21547;BME280;41275;51.912;4.388;2023-06-14T18:50:52;101713.63;;;37.34;14.17
21547;BME280;41275;51.912;4.388;2023-06-14T18:56:13;101712.09;;;35.79;15.34
21547;BME280;41275;51.912;4.388;2023-06-14T19:01:34;101714.38;;;35.09;15.59
21547;BME280;41275;51.912;4.388;2023-06-14T19:06:55;101726.06;;;34.50;16.36
21547;BME280;41275;51.912;4.388;2023-06-14T19:12:16;101721.44;;;33.88;17.04
21547;BME280;41275;51.912;4.388;2023-06-14T19:17:38;101727.75;;;33.50;17.71
21547;BME280;41275;51.912;4.388;2023-06-14T19:22:59;101720.72;;;33.14;18.01
21547;BME280;41275;51.912;4.388;2023-06-14T19:28:21;101734.09;;;32.84;17.92
21547;BME280;41275;51.912;4.388;2023-06-14T19:33:43;101738.66;;;32.60;18.65
21547;BME280;41275;51.912;4.388;2023-06-14T19:39:04;101754.09;;;32.37;18.99
21547;BME280;41275;51.912;4.388;2023-06-14T19:44:26;101751.53;;;32.28;18.96
21547;BME280;41275;51.912;4.388;2023-06-14T19:49:48;101758.22;;;32.15;19.74
21547;BME280;41275;51.912;4.388;2023-06-14T19:55:09;101765.31;;;31.88;19.91
21547;BME280;41275;51.912;4.388;2023-06-14T20:00:30;101767.81;;;31.81;19.86
21547;BME280;41275;51.912;4.388;2023-06-14T20:05:53;101774.25;;;31.72;20.28
21547;BME280;41275;51.912;4.388;2023-06-14T20:11:16;101766.09;;;31.48;20.45
21547;BME280;41275;51.912;4.388;2023-06-14T20:16:37;101784.94;;;31.37;20.71
21547;BME280;41275;51.912;4.388;2023-06-14T20:21:58;101784.59;;;31.26;21.01
21547;BME280;41275;51.912;4.388;2023-06-14T20:27:20;101795.41;;;31.11;20.92
21547;BME280;41275;51.912;4.388;2023-06-14T20:32:41;101802.59;;;31.03;21.00
21547;BME280;41275;51.912;4.388;2023-06-14T20:38:02;101808.88;;;30.91;21.06
21547;BME280;41275;51.912;4.388;2023-06-14T20:43:23;101804.19;;;30.79;21.42
21547;BME280;41275;51.912;4.388;2023-06-14T20:48:45;101810.53;;;30.71;21.56
21547;BME280;41275;51.912;4.388;2023-06-14T20:54:06;101812.09;;;30.60;21.84
21547;BME280;41275;51.912;4.388;2023-06-14T20:59:27;101823.91;;;30.52;21.98
21547;BME280;41275;51.912;4.388;2023-06-14T21:04:48;101827.41;;;30.40;22.00
21547;BME280;41275;51.912;4.388;2023-06-14T21:10:10;101822.38;;;30.30;22.24
21547;BME280;41275;51.912;4.388;2023-06-14T21:15:31;101829.97;;;30.24;22.49
21547;BME280;41275;51.912;4.388;2023-06-14T21:20:52;101832.94;;;30.19;22.62
21547;BME280;41275;51.912;4.388;2023-06-14T21:26:13;101842.28;;;30.09;23.06
21547;BME280;41275;51.912;4.388;2023-06-14T21:31:36;101837.53;;;30.06;23.11
21547;BME280;41275;51.912;4.388;2023-06-14T21:36:57;101837.13;;;29.96;23.16
21547;BME280;41275;51.912;4.388;2023-06-14T21:42:18;101831.41;;;29.89;23.34
21547;BME280;41275;51.912;4.388;2023-06-14T21:47:40;101837.06;;;29.83;23.53
21547;BME280;41275;51.912;4.388;2023-06-14T21:53:01;101840.19;;;29.73;23.95
21547;BME280;41275;51.912;4.388;2023-06-14T21:58:22;101843.75;;;29.65;24.08
21547;BME280;41275;51.912;4.388;2023-06-14T22:03:44;101840.91;;;29.62;24.16
21547;BME280;41275;51.912;4.388;2023-06-14T22:09:05;101842.69;;;29.57;24.30
21547;BME280;41275;51.912;4.388;2023-06-14T22:14:26;101841.44;;;29.46;24.52
21547;BME280;41275;51.912;4.388;2023-06-14T22:19:51;101842.63;;;29.37;24.79
21547;BME280;41275;51.912;4.388;2023-06-14T22:25:13;101843.19;;;29.21;25.06
21547;BME280;41275;51.912;4.388;2023-06-14T22:30:34;101850.94;;;29.10;25.08
21547;BME280;41275;51.912;4.388;2023-06-14T22:35:57;101849.19;;;29.06;25.69
21547;BME280;41275;51.912;4.388;2023-06-14T22:41:18;101855.94;;;29.00;25.68
21547;BME280;41275;51.912;4.388;2023-06-14T22:46:39;101861.09;;;28.93;26.01
21547;BME280;41275;51.912;4.388;2023-06-14T22:52:01;101852.13;;;28.83;26.16
21547;BME280;41275;51.912;4.388;2023-06-14T22:57:25;101852.50;;;28.73;26.38
21547;BME280;41275;51.912;4.388;2023-06-14T23:02:46;101851.25;;;28.62;26.49
21547;BME280;41275;51.912;4.388;2023-06-14T23:08:07;101852.06;;;28.54;26.94
21547;BME280;41275;51.912;4.388;2023-06-14T23:13:29;101860.88;;;28.42;27.14
21547;BME280;41275;51.912;4.388;2023-06-14T23:18:51;101863.25;;;28.35;27.26
21547;BME280;41275;51.912;4.388;2023-06-14T23:24:12;101861.34;;;28.27;27.54
21547;BME280;41275;51.912;4.388;2023-06-14T23:29:37;101868.41;;;28.19;27.66
21547;BME280;41275;51.912;4.388;2023-06-14T23:35:01;101859.28;;;28.15;27.45
21547;BME280;41275;51.912;4.388;2023-06-14T23:40:22;101867.75;;;28.05;27.80
21547;BME280;41275;51.912;4.388;2023-06-14T23:45:44;101875.44;;;28.03;28.12
21547;BME280;41275;51.912;4.388;2023-06-14T23:51:06;101869.66;;;27.96;28.27
21547;BME280;41275;51.912;4.388;2023-06-14T23:56:27;101863.56;;;27.90;28.13
